Time,TemperatureF,DewpointF,PressureIn,WindDirection,WindDirectionDegrees,WindSpeedMPH,WindSpeedGustMPH,Humidity,HourlyPrecipIn,Conditions,Clouds,dailyrainin,SoftwareType,DateUTC
2013-02-13 00:14:00,30.7,26.0,29.96,ESE,116,0.0,0.0,83,0.00,,,0.00,weatherlink.com 1.10,2013-02-13 06:14:00,
2013-02-13 00:29:00,29.9,25.0,29.96,ESE,116,0.0,0.0,83,0.00,,,0.00,weatherlink.com 1.10,2013-02-13 06:29:00,
2013-02-13 00:44:00,28.8,24.0,29.95,ESE,116,0.0,0.0,83,0.00,,,0.00,weatherlink.com 1.10,2013-02-13 06:44:00,
2013-02-13 00:59:00,27.8,24.0,29.95,ESE,115,0.0,0.0,85,0.00,,,0.00,weatherlink.com 1.10,2013-02-13 06:59:00,
2013-02-13 01:16:00,27.7,24.0,29.95,ESE,115,0.0,0.0,87,0.00,,,0.00,weatherlink.com 1.10,2013-02-13 07:16:00,
2013-02-13 01:29:00,29.0,26.0,29.95,ESE,116,0.0,0.0,87,0.00,,,0.00,weatherlink.com 1.10,2013-02-13 07:29:00,
2013-02-13 01:44:00,29.3,25.0,29.95,ESE,118,0.0,0.0,85,0.00,,,0.00,weatherlink.com 1.10,2013-02-13 07:44:00,
2013-02-13 01:59:00,29.0,25.0,29.94,SE,128,1.0,1.0,85,0.00,,,0.00,weatherlink.com 1.10,2013-02-13 07:59:00,
2013-02-13 02:14:00,29.3,25.0,29.93,SE,124,1.0,1.0,84,0.00,,,0.00,weatherlink.com 1.10,2013-02-13 08:14:00,
2013-02-13 02:29:00,29.3,25.0,29.93,SE,126,1.0,1.0,84,0.00,,,0.00,weatherlink.com 1.10,2013-02-13 08:29:00,
2013-02-13 02:44:00,29.7,25.0,29.92,ESE,122,1.0,1.0,84,0.00,,,0.00,weatherlink.com 1.10,2013-02-13 08:44:00,
2013-02-13 02:59:00,30.0,25.0,29.91,ESE,122,1.0,1.0,83,0.00,,,0.00,weatherlink.com 1.10,2013-02-13 08:59:00,
2013-02-13 03:14:00,30.1,26.0,29.91,ESE,122,0.0,1.0,83,0.00,,,0.00,weatherlink.com 1.10,2013-02-13 09:14:00,
2013-02-13 03:29:00,30.0,25.0,29.91,ESE,122,0.0,0.0,82,0.00,,,0.00,weatherlink.com 1.10,2013-02-13 09:29:00,
2013-02-13 03:44:00,29.4,25.0,29.90,ESE,110,1.0,2.0,84,0.00,,,0.00,weatherlink.com 1.10,2013-02-13 09:44:00,
2013-02-13 03:59:00,30.2,25.0,29.89,ESE,115,0.0,1.0,82,0.00,,,0.00,weatherlink.com 1.10,2013-02-13 09:59:00,
2013-02-13 04:14:00,30.5,26.0,29.89,ESE,116,0.0,0.0,82,0.00,,,0.00,weatherlink.com 1.10,2013-02-13 10:14:00,
2013-02-13 04:29:00,30.3,25.0,29.89,ESE,115,1.0,2.0,82,0.00,,,0.00,weatherlink.com 1.10,2013-02-13 10:29:00,
2013-02-13 04:44:00,29.9,25.0,29.89,ESE,115,0.0,1.0,82,0.00,,,0.00,weatherlink.com 1.10,2013-02-13 10:44:00,
2013-02-13 04:59:00,29.6,25.0,29.89,ESE,118,0.0,1.0,83,0.00,,,0.00,weatherlink.com 1.10,2013-02-13 10:59:00,
2013-02-13 05:14:00,29.3,25.0,29.90,SE,124,0.0,2.0,83,0.00,,,0.00,weatherlink.com 1.10,2013-02-13 11:14:00,
2013-02-13 05:29:00,28.8,24.0,29.89,SE,124,0.0,1.0,83,0.00,,,0.00,weatherlink.com 1.10,2013-02-13 11:29:00,
2013-02-13 05:44:00,28.4,25.0,29.89,SE,124,1.0,2.0,85,0.00,,,0.00,weatherlink.com 1.10,2013-02-13 11:44:00,
2013-02-13 05:59:00,28.1,24.0,29.89,SE,124,0.0,1.0,85,0.00,,,0.00,weatherlink.com 1.10,2013-02-13 11:59:00,
2013-02-13 06:14:00,27.8,24.0,29.90,WNW,295,0.0,1.0,85,0.00,,,0.00,weatherlink.com 1.10,2013-02-13 12:14:00,
2013-02-13 06:29:00,27.4,24.0,29.90,ESE,120,0.0,0.0,85,0.00,,,0.00,weatherlink.com 1.10,2013-02-13 12:29:00,
2013-02-13 06:44:00,27.0,23.0,29.90,ESE,120,0.0,0.0,86,0.00,,,0.00,weatherlink.com 1.10,2013-02-13 12:44:00,
2013-02-13 06:59:00,27.3,24.0,29.90,ESE,120,1.0,1.0,86,0.00,,,0.00,weatherlink.com 1.10,2013-02-13 12:59:00,
2013-02-13 07:14:00,27.5,24.0,29.90,SE,125,1.0,1.0,86,0.00,,,0.00,weatherlink.com 1.10,2013-02-13 13:14:00,
2013-02-13 07:30:00,27.5,24.0,29.90,ESE,122,1.0,1.0,86,0.00,,,0.00,weatherlink.com 1.10,2013-02-13 13:30:00,
2013-02-13 07:44:00,27.5,24.0,29.91,ESE,122,0.0,0.0,86,0.00,,,0.00,weatherlink.com 1.10,2013-02-13 13:44:00,
2013-02-13 07:59:00,28.1,25.0,29.91,ESE,122,0.0,1.0,87,0.00,,,0.00,weatherlink.com 1.10,2013-02-13 13:59:00,
2013-02-13 08:14:00,29.2,25.0,29.91,ESE,122,0.0,0.0,85,0.00,,,0.00,weatherlink.com 1.10,2013-02-13 14:14:00,
2013-02-13 08:29:00,30.8,26.0,29.91,West,276,0.0,1.0,81,0.00,,,0.00,weatherlink.com 1.10,2013-02-13 14:29:00,
2013-02-13 08:44:00,31.9,26.0,29.92,NNE,27,0.0,1.0,79,0.00,,,0.00,weatherlink.com 1.10,2013-02-13 14:44:00,
2013-02-13 09:00:00,34.7,28.0,29.92,ESE,113,0.0,2.0,75,0.00,,,0.00,weatherlink.com 1.10,2013-02-13 15:00:00,
2013-02-13 09:15:00,37.6,28.0,29.91,West,269,0.0,1.0,68,0.00,,,0.00,weatherlink.com 1.10,2013-02-13 15:15:00,
2013-02-13 09:30:00,39.7,29.0,29.91,NW,322,0.0,1.0,65,0.00,,,0.00,weatherlink.com 1.10,2013-02-13 15:30:00,
2013-02-13 09:45:00,40.9,28.0,29.91,SW,226,0.0,3.0,61,0.00,,,0.00,weatherlink.com 1.10,2013-02-13 15:45:00,
2013-02-13 10:00:00,42.2,28.0,29.91,SSE,159,1.0,2.0,58,0.00,,,0.00,weatherlink.com 1.10,2013-02-13 16:00:00,
2013-02-13 10:15:00,42.8,28.0,29.91,NW,316,0.0,3.0,57,0.00,,,0.00,weatherlink.com 1.10,2013-02-13 16:15:00,
2013-02-13 10:30:00,44.0,29.0,29.91,WNW,290,1.0,4.0,55,0.00,,,0.00,weatherlink.com 1.10,2013-02-13 16:30:00,
2013-02-13 10:45:00,45.4,28.0,29.90,ENE,65,1.0,5.0,51,0.00,,,0.00,weatherlink.com 1.10,2013-02-13 16:45:00,
2013-02-13 11:00:00,45.4,29.0,29.90,NW,311,3.0,8.0,52,0.00,,,0.00,weatherlink.com 1.10,2013-02-13 17:00:00,
2013-02-13 11:15:00,46.1,29.0,29.89,WNW,295,1.0,6.0,51,0.00,,,0.00,weatherlink.com 1.10,2013-02-13 17:15:00,
2013-02-13 11:30:00,48.4,29.0,29.89,WSW,257,0.0,4.0,48,0.00,,,0.00,weatherlink.com 1.10,2013-02-13 17:30:00,
2013-02-13 11:45:00,48.7,29.0,29.90,WNW,297,1.0,11.0,47,0.00,,,0.00,weatherlink.com 1.10,2013-02-13 17:45:00,
2013-02-13 12:00:00,49.5,29.0,29.89,ENE,64,1.0,7.0,45,0.00,,,0.00,weatherlink.com 1.10,2013-02-13 18:00:00,
2013-02-13 12:15:00,49.4,29.0,29.88,NE,56,1.0,11.0,46,0.00,,,0.00,weatherlink.com 1.10,2013-02-13 18:15:00,
2013-02-13 12:30:00,50.2,30.0,29.88,WNW,302,2.0,9.0,46,0.00,,,0.00,weatherlink.com 1.10,2013-02-13 18:30:00,
2013-02-13 12:45:00,51.4,32.0,29.87,WNW,298,2.0,6.0,47,0.00,,,0.00,weatherlink.com 1.10,2013-02-13 18:45:00,
2013-02-13 13:00:00,50.6,30.0,29.86,NNW,334,1.0,8.0,45,0.00,,,0.00,weatherlink.com 1.10,2013-02-13 19:00:00,
2013-02-13 13:15:00,53.0,30.0,29.85,NNW,328,1.0,4.0,42,0.00,,,0.00,weatherlink.com 1.10,2013-02-13 19:15:00,
2013-02-13 13:30:00,54.6,31.0,29.84,West,278,3.0,5.0,41,0.00,,,0.00,weatherlink.com 1.10,2013-02-13 19:30:00,
2013-02-13 13:45:00,55.3,31.0,29.84,ESE,109,1.0,5.0,39,0.00,,,0.00,weatherlink.com 1.10,2013-02-13 19:45:00,
2013-02-13 14:01:00,55.7,32.0,29.83,West,278,0.0,2.0,41,0.00,,,0.00,weatherlink.com 1.10,2013-02-13 20:01:00,
2013-02-13 14:16:00,55.5,30.0,29.82,NW,319,1.0,4.0,38,0.00,,,0.00,weatherlink.com 1.10,2013-02-13 20:16:00,
2013-02-13 14:31:00,55.6,29.0,29.82,West,281,1.0,4.0,36,0.00,,,0.00,weatherlink.com 1.10,2013-02-13 20:31:00,
2013-02-13 14:47:00,55.9,30.0,29.81,ESE,109,1.0,5.0,37,0.00,,,0.00,weatherlink.com 1.10,2013-02-13 20:47:00,
2013-02-13 15:01:00,55.8,31.0,29.80,NW,316,0.0,4.0,39,0.00,,,0.00,weatherlink.com 1.10,2013-02-13 21:01:00,
2013-02-13 15:16:00,55.3,29.0,29.80,WNW,300,2.0,5.0,36,0.00,,,0.00,weatherlink.com 1.10,2013-02-13 21:16:00,
2013-02-13 15:31:00,55.0,28.0,29.80,NW,312,3.0,12.0,35,0.00,,,0.00,weatherlink.com 1.10,2013-02-13 21:31:00,
2013-02-13 15:46:00,55.3,29.0,29.80,East,101,0.0,6.0,37,0.00,,,0.00,weatherlink.com 1.10,2013-02-13 21:46:00,
2013-02-13 16:01:00,55.6,29.0,29.79,ESE,123,0.0,6.0,37,0.00,,,0.00,weatherlink.com 1.10,2013-02-13 22:01:00,
2013-02-13 16:16:00,55.0,28.0,29.79,ESE,122,1.0,6.0,36,0.00,,,0.00,weatherlink.com 1.10,2013-02-13 22:16:00,
2013-02-13 16:31:00,54.5,28.0,29.79,ESE,122,2.0,2.0,37,0.00,,,0.00,weatherlink.com 1.10,2013-02-13 22:31:00,
2013-02-13 16:46:00,54.0,28.0,29.79,East,86,1.0,3.0,37,0.00,,,0.00,weatherlink.com 1.10,2013-02-13 22:46:00,
2013-02-13 17:01:00,53.6,29.0,29.79,SE,125,1.0,5.0,39,0.00,,,0.00,weatherlink.com 1.10,2013-02-13 23:01:00,
2013-02-13 17:16:00,52.1,29.0,29.79,SE,146,1.0,2.0,42,0.00,,,0.00,weatherlink.com 1.10,2013-02-13 23:16:00,
2013-02-13 17:31:00,51.7,28.0,29.79,SW,224,2.0,4.0,41,0.00,,,0.00,weatherlink.com 1.10,2013-02-13 23:31:00,
2013-02-13 17:46:00,51.0,28.0,29.79,NW,316,2.0,3.0,42,0.00,,,0.00,weatherlink.com 1.10,2013-02-13 23:46:00,
2013-02-13 18:01:00,49.7,29.0,29.80,ESE,112,1.0,3.0,45,0.00,,,0.00,weatherlink.com 1.10,2013-02-14 00:01:00,
2013-02-13 18:16:00,47.7,29.0,29.80,ENE,67,0.0,1.0,48,0.00,,,0.00,weatherlink.com 1.10,2013-02-14 00:16:00,
2013-02-13 18:31:00,46.3,28.0,29.80,East,84,0.0,1.0,50,0.00,,,0.00,weatherlink.com 1.10,2013-02-14 00:31:00,
2013-02-13 18:46:00,45.2,28.0,29.80,East,84,0.0,0.0,52,0.00,,,0.00,weatherlink.com 1.10,2013-02-14 00:46:00,
2013-02-13 19:01:00,44.3,28.0,29.80,East,86,0.0,1.0,54,0.00,,,0.00,weatherlink.com 1.10,2013-02-14 01:01:00,
2013-02-13 19:16:00,44.0,29.0,29.80,East,86,0.0,1.0,55,0.00,,,0.00,weatherlink.com 1.10,2013-02-14 01:16:00,
2013-02-13 19:31:00,43.1,27.0,29.80,East,86,0.0,0.0,54,0.00,,,0.00,weatherlink.com 1.10,2013-02-14 01:31:00,
2013-02-13 19:46:00,42.2,29.0,29.81,East,86,0.0,0.0,59,0.00,,,0.00,weatherlink.com 1.10,2013-02-14 01:46:00,
2013-02-13 20:01:00,41.6,28.0,29.81,East,87,0.0,1.0,60,0.00,,,0.00,weatherlink.com 1.10,2013-02-14 02:01:00,
2013-02-13 20:16:00,40.7,28.0,29.81,East,87,0.0,0.0,62,0.00,,,0.00,weatherlink.com 1.10,2013-02-14 02:16:00,
2013-02-13 20:31:00,41.4,29.0,29.81,ESE,112,0.0,0.0,61,0.00,,,0.00,weatherlink.com 1.10,2013-02-14 02:31:00,
2013-02-13 20:46:00,41.8,29.0,29.80,ESE,111,0.0,0.0,60,0.00,,,0.00,weatherlink.com 1.10,2013-02-14 02:46:00,
2013-02-13 21:01:00,41.0,29.0,29.80,ESE,113,1.0,2.0,62,0.00,,,0.00,weatherlink.com 1.10,2013-02-14 03:01:00,
2013-02-13 21:16:00,40.0,29.0,29.80,ESE,113,0.0,1.0,65,0.00,,,0.00,weatherlink.com 1.10,2013-02-14 03:16:00,
2013-02-13 21:31:00,39.3,29.0,29.80,ESE,113,0.0,0.0,67,0.00,,,0.00,weatherlink.com 1.10,2013-02-14 03:31:00,
2013-02-13 21:46:00,38.4,28.0,29.81,ESE,113,0.0,0.0,67,0.00,,,0.00,weatherlink.com 1.10,2013-02-14 03:46:00,
2013-02-13 22:02:00,38.7,28.0,29.81,ESE,113,1.0,1.0,66,0.00,,,0.00,weatherlink.com 1.10,2013-02-14 04:02:00,
2013-02-13 22:16:00,39.1,28.0,29.81,ESE,113,0.0,1.0,65,0.00,,,0.00,weatherlink.com 1.10,2013-02-14 04:16:00,
2013-02-13 22:46:00,38.4,27.0,29.80,ESE,113,0.0,0.0,65,0.00,,,0.00,weatherlink.com 1.10,2013-02-14 04:46:00,
2013-02-13 23:01:00,38.1,28.0,29.81,ESE,113,1.0,1.0,66,0.00,,,0.00,weatherlink.com 1.10,2013-02-14 05:01:00,
2013-02-13 23:16:00,37.7,28.0,29.81,ESE,115,1.0,1.0,67,0.00,,,0.00,weatherlink.com 1.10,2013-02-14 05:16:00,
2013-02-13 23:31:00,37.7,28.0,29.81,ESE,115,0.0,1.0,67,0.00,,,0.00,weatherlink.com 1.10,2013-02-14 05:31:00,
2013-02-13 23:46:00,37.5,27.0,29.82,ESE,115,1.0,1.0,67,0.00,,,0.00,weatherlink.com 1.10,2013-02-14 05:46:00,